sensor_id;sensor_type;location;lat;lon;timestamp;P1;durP1;ratioP1;P2;durP2;ratioP2
15114;SDS011;7658;51.456;7.622;2023-02-25T00:01:18;15.87;;;7.90;;
15114;SDS011;7658;51.456;7.622;2023-02-25T00:03:44;16.13;;;7.50;;
15114;SDS011;7658;51.456;7.622;2023-02-25T00:06:11;23.30;;;8.27;;
15114;SDS011;7658;51.456;7.622;2023-02-25T00:08:38;15.63;;;7.50;;
15114;SDS011;7658;51.456;7.622;2023-02-25T00:11:07;15.00;;;7.63;;
15114;SDS011;7658;51.456;7.622;2023-02-25T00:13:33;22.70;;;8.07;;
15114;SDS011;7658;51.456;7.622;2023-02-25T00:16:01;17.07;;;6.90;;
15114;SDS011;7658;51.456;7.622;2023-02-25T00:18:29;15.63;;;7.07;;
15114;SDS011;7658;51.456;7.622;2023-02-25T00:20:55;17.00;;;7.30;;
15114;SDS011;7658;51.456;7.622;2023-02-25T00:23:21;17.80;;;8.07;;
15114;SDS011;7658;51.456;7.622;2023-02-25T00:25:47;12.67;;;7.10;;
15114;SDS011;7658;51.456;7.622;2023-02-25T00:28:13;23.90;;;7.97;;
15114;SDS011;7658;51.456;7.622;2023-02-25T00:30:40;17.50;;;8.07;;
15114;SDS011;7658;51.456;7.622;2023-02-25T00:33:09;20.53;;;8.00;;
15114;SDS011;7658;51.456;7.622;2023-02-25T00:35:38;22.47;;;7.70;;
15114;SDS011;7658;51.456;7.622;2023-02-25T00:38:05;23.00;;;8.90;;
15114;SDS011;7658;51.456;7.622;2023-02-25T00:40:31;14.97;;;7.20;;
15114;SDS011;7658;51.456;7.622;2023-02-25T00:42:58;20.43;;;8.57;;
15114;SDS011;7658;51.456;7.622;2023-02-25T00:45:24;15.73;;;7.33;;
15114;SDS011;7658;51.456;7.622;2023-02-25T00:47:49;17.40;;;8.10;;
15114;SDS011;7658;51.456;7.622;2023-02-25T00:50:15;16.03;;;7.20;;
15114;SDS011;7658;51.456;7.622;2023-02-25T00:52:41;23.27;;;9.03;;
15114;SDS011;7658;51.456;7.622;2023-02-25T00:55:07;19.90;;;6.83;;
15114;SDS011;7658;51.456;7.622;2023-02-25T00:57:33;18.33;;;7.17;;
15114;SDS011;7658;51.456;7.622;2023-02-25T00:59:59;20.27;;;7.97;;
15114;SDS011;7658;51.456;7.622;2023-02-25T01:02:24;16.53;;;8.00;;
15114;SDS011;7658;51.456;7.622;2023-02-25T01:04:50;12.63;;;7.27;;
15114;SDS011;7658;51.456;7.622;2023-02-25T01:07:16;12.57;;;7.30;;
15114;SDS011;7658;51.456;7.622;2023-02-25T01:09:41;17.13;;;6.80;;
15114;SDS011;7658;51.456;7.622;2023-02-25T01:12:07;20.07;;;8.20;;
15114;SDS011;7658;51.456;7.622;2023-02-25T01:14:33;21.90;;;7.90;;
15114;SDS011;7658;51.456;7.622;2023-02-25T01:16:59;17.10;;;7.93;;
15114;SDS011;7658;51.456;7.622;2023-02-25T01:19:27;20.80;;;7.60;;
15114;SDS011;7658;51.456;7.622;2023-02-25T01:21:55;14.43;;;7.33;;
15114;SDS011;7658;51.456;7.622;2023-02-25T01:24:26;14.33;;;6.67;;
15114;SDS011;7658;51.456;7.622;2023-02-25T01:26:54;17.07;;;7.47;;
15114;SDS011;7658;51.456;7.622;2023-02-25T01:29:22;16.83;;;7.63;;
15114;SDS011;7658;51.456;7.622;2023-02-25T01:31:55;17.10;;;6.90;;
15114;SDS011;7658;51.456;7.622;2023-02-25T01:34:22;17.10;;;7.33;;
15114;SDS011;7658;51.456;7.622;2023-02-25T01:36:48;20.00;;;7.70;;
15114;SDS011;7658;51.456;7.622;2023-02-25T01:39:15;12.97;;;7.00;;
15114;SDS011;7658;51.456;7.622;2023-02-25T01:41:42;17.00;;;7.73;;
15114;SDS011;7658;51.456;7.622;2023-02-25T01:44:17;18.27;;;7.80;;
15114;SDS011;7658;51.456;7.622;2023-02-25T01:46:50;25.00;;;8.00;;
15114;SDS011;7658;51.456;7.622;2023-02-25T01:49:21;16.67;;;7.27;;
15114;SDS011;7658;51.456;7.622;2023-02-25T01:51:49;16.23;;;6.90;;
15114;SDS011;7658;51.456;7.622;2023-02-25T01:54:17;15.87;;;7.17;;
15114;SDS011;7658;51.456;7.622;2023-02-25T01:56:49;20.80;;;7.40;;
15114;SDS011;7658;51.456;7.622;2023-02-25T01:59:17;19.37;;;7.47;;
15114;SDS011;7658;51.456;7.622;2023-02-25T02:01:47;16.50;;;7.07;;
15114;SDS011;7658;51.456;7.622;2023-02-25T02:04:13;16.67;;;7.47;;
15114;SDS011;7658;51.456;7.622;2023-02-25T02:06:44;14.43;;;7.17;;
15114;SDS011;7658;51.456;7.622;2023-02-25T02:09:13;26.10;;;8.37;;
15114;SDS011;7658;51.456;7.622;2023-02-25T02:11:48;14.20;;;7.70;;
15114;SDS011;7658;51.456;7.622;2023-02-25T02:14:18;14.83;;;7.50;;
15114;SDS011;7658;51.456;7.622;2023-02-25T02:22:12;18.93;;;7.60;;
15114;SDS011;7658;51.456;7.622;2023-02-25T02:28:14;17.17;;;7.97;;
15114;SDS011;7658;51.456;7.622;2023-02-25T02:36:15;20.07;;;8.60;;
15114;SDS011;7658;51.456;7.622;2023-02-25T02:44:14;18.80;;;7.57;;
15114;SDS011;7658;51.456;7.622;2023-02-25T02:52:20;18.23;;;7.97;;
15114;SDS011;7658;51.456;7.622;2023-02-25T02:54:51;14.90;;;7.23;;
15114;SDS011;7658;51.456;7.622;2023-02-25T02:57:21;16.63;;;7.23;;
15114;SDS011;7658;51.456;7.622;2023-02-25T02:59:53;16.87;;;7.77;;
15114;SDS011;7658;51.456;7.622;2023-02-25T03:02:33;20.63;;;7.53;;
15114;SDS011;7658;51.456;7.622;2023-02-25T03:05:08;22.87;;;8.07;;
15114;SDS011;7658;51.456;7.622;2023-02-25T03:07:39;13.87;;;7.67;;
15114;SDS011;7658;51.456;7.622;2023-02-25T03:10:09;15.83;;;8.33;;
15114;SDS011;7658;51.456;7.622;2023-02-25T03:12:39;12.50;;;7.27;;
15114;SDS011;7658;51.456;7.622;2023-02-25T03:15:05;21.30;;;8.27;;
15114;SDS011;7658;51.456;7.622;2023-02-25T03:17:35;13.07;;;7.20;;
15114;SDS011;7658;51.456;7.622;2023-02-25T03:22:33;18.13;;;7.00;;
15114;SDS011;7658;51.456;7.622;2023-02-25T03:27:56;17.73;;;7.60;;
15114;SDS011;7658;51.456;7.622;2023-02-25T03:30:47;18.97;;;8.47;;
15114;SDS011;7658;51.456;7.622;2023-02-25T03:35:54;19.37;;;7.83;;
15114;SDS011;7658;51.456;7.622;2023-02-25T03:38:22;14.27;;;7.87;;
15114;SDS011;7658;51.456;7.622;2023-02-25T03:40:51;17.57;;;8.37;;
15114;SDS011;7658;51.456;7.622;2023-02-25T03:43:21;19.00;;;8.57;;
15114;SDS011;7658;51.456;7.622;2023-02-25T03:45:52;14.67;;;7.50;;
15114;SDS011;7658;51.456;7.622;2023-02-25T03:48:20;18.70;;;8.63;;
15114;SDS011;7658;51.456;7.622;2023-02-25T03:50:47;20.77;;;8.33;;
15114;SDS011;7658;51.456;7.622;2023-02-25T03:53:17;20.10;;;7.83;;
15114;SDS011;7658;51.456;7.622;2023-02-25T03:55:43;22.17;;;8.60;;
15114;SDS011;7658;51.456;7.622;2023-02-25T03:58:10;20.73;;;8.77;;
15114;SDS011;7658;51.456;7.622;2023-02-25T04:00:35;17.13;;;8.97;;
15114;SDS011;7658;51.456;7.622;2023-02-25T04:03:03;21.63;;;8.17;;
15114;SDS011;7658;51.456;7.622;2023-02-25T04:05:29;16.20;;;7.53;;
15114;SDS011;7658;51.456;7.622;2023-02-25T04:07:55;24.73;;;9.03;;
15114;SDS011;7658;51.456;7.622;2023-02-25T04:10:22;21.07;;;8.40;;
15114;SDS011;7658;51.456;7.622;2023-02-25T04:12:48;25.87;;;8.67;;
15114;SDS011;7658;51.456;7.622;2023-02-25T04:15:18;25.33;;;8.30;;
15114;SDS011;7658;51.456;7.622;2023-02-25T04:17:44;19.83;;;8.50;;
15114;SDS011;7658;51.456;7.622;2023-02-25T04:20:11;19.07;;;8.50;;
15114;SDS011;7658;51.456;7.622;2023-02-25T04:22:38;23.63;;;8.80;;
15114;SDS011;7658;51.456;7.622;2023-02-25T04:25:04;18.67;;;8.40;;
15114;SDS011;7658;51.456;7.622;2023-02-25T04:27:30;23.67;;;8.40;;
15114;SDS011;7658;51.456;7.622;2023-02-25T04:29:57;16.60;;;7.93;;
15114;SDS011;7658;51.456;7.622;2023-02-25T04:32:23;21.20;;;8.37;;
15114;SDS011;7658;51.456;7.622;2023-02-25T04:34:49;21.50;;;8.50;;
15114;SDS011;7658;51.456;7.622;2023-02-25T04:37:15;18.77;;;7.97;;
15114;SDS011;7658;51.456;7.622;2023-02-25T04:39:41;22.53;;;8.70;;
15114;SDS011;7658;51.456;7.622;2023-02-25T04:42:08;24.23;;;8.23;;
15114;SDS011;7658;51.456;7.622;2023-02-25T04:44:33;24.63;;;8.33;;
15114;SDS011;7658;51.456;7.622;2023-02-25T04:46:59;21.77;;;8.57;;
15114;SDS011;7658;51.456;7.622;2023-02-25T04:49:25;26.30;;;8.37;;
15114;SDS011;7658;51.456;7.622;2023-02-25T04:51:51;15.77;;;7.93;;
15114;SDS011;7658;51.456;7.622;2023-02-25T04:54:17;18.57;;;8.53;;
15114;SDS011;7658;51.456;7.622;2023-02-25T04:56:44;21.27;;;8.20;;
15114;SDS011;7658;51.456;7.622;2023-02-25T04:59:11;19.90;;;8.67;;
15114;SDS011;7658;51.456;7.622;2023-02-25T05:01:37;15.70;;;7.73;;
15114;SDS011;7658;51.456;7.622;2023-02-25T05:04:04;21.97;;;8.27;;
15114;SDS011;7658;51.456;7.622;2023-02-25T05:06:30;24.90;;;8.13;;
15114;SDS011;7658;51.456;7.622;2023-02-25T05:08:56;17.27;;;8.17;;
15114;SDS011;7658;51.456;7.622;2023-02-25T05:11:23;20.53;;;8.13;;
15114;SDS011;7658;51.456;7.622;2023-02-25T05:13:50;24.80;;;8.73;;
15114;SDS011;7658;51.456;7.622;2023-02-25T05:16:17;16.90;;;7.50;;
15114;SDS011;7658;51.456;7.622;2023-02-25T05:18:44;18.70;;;8.30;;
15114;SDS011;7658;51.456;7.622;2023-02-25T05:21:12;24.20;;;8.70;;
15114;SDS011;7658;51.456;7.622;2023-02-25T05:23:40;16.83;;;9.17;;
15114;SDS011;7658;51.456;7.622;2023-02-25T05:26:07;20.10;;;8.73;;
15114;SDS011;7658;51.456;7.622;2023-02-25T05:28:33;21.23;;;8.30;;
15114;SDS011;7658;51.456;7.622;2023-02-25T05:31:02;21.60;;;8.13;;
15114;SDS011;7658;51.456;7.622;2023-02-25T05:33:32;21.07;;;7.70;;
15114;SDS011;7658;51.456;7.622;2023-02-25T05:36:00;18.13;;;7.77;;
15114;SDS011;7658;51.456;7.622;2023-02-25T05:38:26;19.33;;;8.07;;
15114;SDS011;7658;51.456;7.622;2023-02-25T05:40:52;26.23;;;8.27;;
15114;SDS011;7658;51.456;7.622;2023-02-25T05:43:18;19.50;;;8.07;;
15114;SDS011;7658;51.456;7.622;2023-02-25T05:45:51;16.47;;;7.80;;
15114;SDS011;7658;51.456;7.622;2023-02-25T05:48:18;15.37;;;8.03;;
15114;SDS011;7658;51.456;7.622;2023-02-25T05:50:43;18.77;;;8.83;;
15114;SDS011;7658;51.456;7.622;2023-02-25T05:53:09;20.23;;;8.60;;
15114;SDS011;7658;51.456;7.622;2023-02-25T05:55:39;19.50;;;7.53;;
15114;SDS011;7658;51.456;7.622;2023-02-25T05:58:06;21.03;;;8.50;;
15114;SDS011;7658;51.456;7.622;2023-02-25T06:00:31;20.40;;;8.60;;
15114;SDS011;7658;51.456;7.622;2023-02-25T06:02:58;18.87;;;7.77;;
15114;SDS011;7658;51.456;7.622;2023-02-25T06:05:23;18.50;;;7.67;;
15114;SDS011;7658;51.456;7.622;2023-02-25T06:07:49;16.93;;;7.43;;
15114;SDS011;7658;51.456;7.622;2023-02-25T06:10:15;25.23;;;8.20;;
15114;SDS011;7658;51.456;7.622;2023-02-25T06:12:41;25.30;;;8.37;;
15114;SDS011;7658;51.456;7.622;2023-02-25T06:15:07;23.70;;;8.77;;
15114;SDS011;7658;51.456;7.622;2023-02-25T06:17:33;32.03;;;8.10;;
15114;SDS011;7658;51.456;7.622;2023-02-25T06:19:58;22.87;;;8.17;;
15114;SDS011;7658;51.456;7.622;2023-02-25T06:22:25;24.07;;;7.33;;
15114;SDS011;7658;51.456;7.622;2023-02-25T06:24:51;23.70;;;7.83;;
15114;SDS011;7658;51.456;7.622;2023-02-25T06:27:16;15.50;;;6.73;;
15114;SDS011;7658;51.456;7.622;2023-02-25T06:29:42;19.53;;;8.50;;
15114;SDS011;7658;51.456;7.622;2023-02-25T06:32:11;22.37;;;8.03;;
15114;SDS011;7658;51.456;7.622;2023-02-25T06:34:38;16.73;;;8.23;;
15114;SDS011;7658;51.456;7.622;2023-02-25T06:37:04;17.93;;;7.27;;
15114;SDS011;7658;51.456;7.622;2023-02-25T06:39:31;26.30;;;8.17;;
15114;SDS011;7658;51.456;7.622;2023-02-25T06:41:57;27.70;;;9.10;;
15114;SDS011;7658;51.456;7.622;2023-02-25T06:44:23;23.57;;;8.27;;
15114;SDS011;7658;51.456;7.622;2023-02-25T06:46:51;17.07;;;7.63;;
15114;SDS011;7658;51.456;7.622;2023-02-25T06:49:19;17.97;;;7.90;;
15114;SDS011;7658;51.456;7.622;2023-02-25T06:51:45;25.33;;;8.50;;
15114;SDS011;7658;51.456;7.622;2023-02-25T06:54:14;19.43;;;8.03;;
15114;SDS011;7658;51.456;7.622;2023-02-25T06:56:40;19.43;;;7.53;;
15114;SDS011;7658;51.456;7.622;2023-02-25T06:59:06;23.70;;;7.60;;
15114;SDS011;7658;51.456;7.622;2023-02-25T07:01:32;15.30;;;7.77;;
15114;SDS011;7658;51.456;7.622;2023-02-25T07:03:58;20.77;;;8.20;;
15114;SDS011;7658;51.456;7.622;2023-02-25T07:06:24;23.63;;;7.73;;
15114;SDS011;7658;51.456;7.622;2023-02-25T07:08:50;21.53;;;8.07;;
15114;SDS011;7658;51.456;7.622;2023-02-25T07:13:42;21.27;;;8.03;;
15114;SDS011;7658;51.456;7.622;2023-02-25T07:16:09;18.67;;;7.57;;
15114;SDS011;7658;51.456;7.622;2023-02-25T07:18:36;13.93;;;7.03;;
15114;SDS011;7658;51.456;7.622;2023-02-25T07:21:02;22.70;;;8.03;;
15114;SDS011;7658;51.456;7.622;2023-02-25T07:23:27;16.40;;;7.20;;
15114;SDS011;7658;51.456;7.622;2023-02-25T07:25:53;22.33;;;8.33;;
15114;SDS011;7658;51.456;7.622;2023-02-25T07:28:19;22.30;;;8.33;;
15114;SDS011;7658;51.456;7.622;2023-02-25T07:30:44;17.80;;;8.40;;
15114;SDS011;7658;51.456;7.622;2023-02-25T07:33:10;13.93;;;7.60;;
15114;SDS011;7658;51.456;7.622;2023-02-25T07:35:36;18.77;;;7.63;;
15114;SDS011;7658;51.456;7.622;2023-02-25T07:38:01;27.47;;;9.13;;
15114;SDS011;7658;51.456;7.622;2023-02-25T07:40:27;22.83;;;9.00;;
15114;SDS011;7658;51.456;7.622;2023-02-25T07:42:53;26.60;;;8.10;;
15114;SDS011;7658;51.456;7.622;2023-02-25T07:45:19;13.23;;;7.97;;
15114;SDS011;7658;51.456;7.622;2023-02-25T07:47:44;27.00;;;8.97;;
15114;SDS011;7658;51.456;7.622;2023-02-25T07:50:10;21.33;;;8.60;;
15114;SDS011;7658;51.456;7.622;2023-02-25T07:52:37;26.60;;;7.80;;
15114;SDS011;7658;51.456;7.622;2023-02-25T07:55:03;15.27;;;7.57;;
15114;SDS011;7658;51.456;7.622;2023-02-25T07:57:30;14.70;;;7.47;;
15114;SDS011;7658;51.456;7.622;2023-02-25T07:59:56;18.10;;;7.50;;
15114;SDS011;7658;51.456;7.622;2023-02-25T08:02:22;22.47;;;7.90;;
15114;SDS011;7658;51.456;7.622;2023-02-25T08:04:49;16.20;;;7.77;;
15114;SDS011;7658;51.456;7.622;2023-02-25T08:07:15;17.53;;;7.73;;
15114;SDS011;7658;51.456;7.622;2023-02-25T08:09:41;20.43;;;8.17;;
15114;SDS011;7658;51.456;7.622;2023-02-25T08:12:07;21.97;;;8.23;;
15114;SDS011;7658;51.456;7.622;2023-02-25T08:14:34;15.37;;;8.03;;
15114;SDS011;7658;51.456;7.622;2023-02-25T08:17:01;23.20;;;8.93;;
15114;SDS011;7658;51.456;7.622;2023-02-25T08:19:27;20.70;;;8.03;;
15114;SDS011;7658;51.456;7.622;2023-02-25T08:21:53;14.30;;;7.40;;
15114;SDS011;7658;51.456;7.622;2023-02-25T08:24:20;12.13;;;7.13;;
15114;SDS011;7658;51.456;7.622;2023-02-25T08:26:46;7.20;;;6.03;;
15114;SDS011;7658;51.456;7.622;2023-02-25T08:29:12;5.20;;;4.80;;
15114;SDS011;7658;51.456;7.622;2023-02-25T08:31:39;6.67;;;5.83;;
15114;SDS011;7658;51.456;7.622;2023-02-25T08:34:05;6.47;;;5.60;;
15114;SDS011;7658;51.456;7.622;2023-02-25T08:36:31;6.10;;;5.63;;
15114;SDS011;7658;51.456;7.622;2023-02-25T08:38:58;6.07;;;5.60;;
15114;SDS011;7658;51.456;7.622;2023-02-25T08:41:25;7.20;;;6.30;;
15114;SDS011;7658;51.456;7.622;2023-02-25T08:43:52;10.63;;;6.13;;
15114;SDS011;7658;51.456;7.622;2023-02-25T08:46:19;9.93;;;6.53;;
15114;SDS011;7658;51.456;7.622;2023-02-25T08:48:49;19.77;;;7.77;;
15114;SDS011;7658;51.456;7.622;2023-02-25T08:51:16;18.23;;;7.73;;
15114;SDS011;7658;51.456;7.622;2023-02-25T08:53:44;18.83;;;7.67;;
15114;SDS011;7658;51.456;7.622;2023-02-25T08:56:10;30.63;;;8.40;;
15114;SDS011;7658;51.456;7.622;2023-02-25T08:58:38;18.50;;;8.03;;
15114;SDS011;7658;51.456;7.622;2023-02-25T09:03:37;22.90;;;8.60;;
15114;SDS011;7658;51.456;7.622;2023-02-25T09:06:17;23.20;;;9.27;;
15114;SDS011;7658;51.456;7.622;2023-02-25T09:08:47;20.87;;;8.17;;
15114;SDS011;7658;51.456;7.622;2023-02-25T09:11:14;19.80;;;8.10;;
15114;SDS011;7658;51.456;7.622;2023-02-25T09:13:40;20.27;;;8.30;;
15114;SDS011;7658;51.456;7.622;2023-02-25T09:16:06;17.80;;;7.77;;
15114;SDS011;7658;51.456;7.622;2023-02-25T09:18:32;18.53;;;7.80;;
15114;SDS011;7658;51.456;7.622;2023-02-25T09:20:58;12.03;;;8.00;;
15114;SDS011;7658;51.456;7.622;2023-02-25T09:23:23;15.60;;;7.43;;
15114;SDS011;7658;51.456;7.622;2023-02-25T09:25:49;20.27;;;9.10;;
15114;SDS011;7658;51.456;7.622;2023-02-25T09:28:15;13.93;;;7.50;;
15114;SDS011;7658;51.456;7.622;2023-02-25T09:30:43;15.10;;;7.83;;
15114;SDS011;7658;51.456;7.622;2023-02-25T09:33:10;16.57;;;7.83;;
15114;SDS011;7658;51.456;7.622;2023-02-25T09:35:36;7.50;;;6.80;;
15114;SDS011;7658;51.456;7.622;2023-02-25T09:38:02;6.37;;;5.73;;
15114;SDS011;7658;51.456;7.622;2023-02-25T09:40:27;5.40;;;5.00;;
15114;SDS011;7658;51.456;7.622;2023-02-25T09:43:02;5.87;;;5.47;;
15114;SDS011;7658;51.456;7.622;2023-02-25T09:45:42;6.43;;;5.83;;
15114;SDS011;7658;51.456;7.622;2023-02-25T09:48:25;7.10;;;6.00;;
15114;SDS011;7658;51.456;7.622;2023-02-25T09:51:39;6.23;;;5.70;;
15114;SDS011;7658;51.456;7.622;2023-02-25T09:53:55;6.77;;;6.27;;
15114;SDS011;7658;51.456;7.622;2023-02-25T09:56:30;7.80;;;6.30;;
15114;SDS011;7658;51.456;7.622;2023-02-25T09:58:58;7.97;;;6.83;;
15114;SDS011;7658;51.456;7.622;2023-02-25T10:01:32;16.87;;;7.20;;
15114;SDS011;7658;51.456;7.622;2023-02-25T10:04:12;10.17;;;7.80;;
15114;SDS011;7658;51.456;7.622;2023-02-25T10:06:46;10.00;;;7.40;;
15114;SDS011;7658;51.456;7.622;2023-02-25T10:25:56;16.43;;;7.37;;
15114;SDS011;7658;51.456;7.622;2023-02-25T10:28:27;5.93;;;5.13;;
15114;SDS011;7658;51.456;7.622;2023-02-25T10:30:58;7.63;;;5.20;;
15114;SDS011;7658;51.456;7.622;2023-02-25T10:33:35;5.70;;;5.20;;
15114;SDS011;7658;51.456;7.622;2023-02-25T10:38:41;6.53;;;5.93;;
15114;SDS011;7658;51.456;7.622;2023-02-25T10:41:12;11.97;;;5.57;;
15114;SDS011;7658;51.456;7.622;2023-02-25T10:43:38;7.30;;;5.40;;
15114;SDS011;7658;51.456;7.622;2023-02-25T10:49:12;6.80;;;5.47;;
15114;SDS011;7658;51.456;7.622;2023-02-25T10:54:48;8.43;;;5.63;;
15114;SDS011;7658;51.456;7.622;2023-02-25T10:57:31;9.07;;;5.87;;
15114;SDS011;7658;51.456;7.622;2023-02-25T11:00:06;7.33;;;6.07;;
15114;SDS011;7658;51.456;7.622;2023-02-25T11:02:53;8.93;;;5.53;;
15114;SDS011;7658;51.456;7.622;2023-02-25T11:05:29;9.63;;;5.87;;
15114;SDS011;7658;51.456;7.622;2023-02-25T11:08:03;7.47;;;5.90;;
15114;SDS011;7658;51.456;7.622;2023-02-25T11:10:32;10.77;;;6.00;;
15114;SDS011;7658;51.456;7.622;2023-02-25T11:12:58;7.47;;;5.70;;
15114;SDS011;7658;51.456;7.622;2023-02-25T11:15:28;5.23;;;4.80;;
15114;SDS011;7658;51.456;7.622;2023-02-25T11:18:21;10.43;;;5.87;;
15114;SDS011;7658;51.456;7.622;2023-02-25T11:20:55;7.53;;;5.10;;
15114;SDS011;7658;51.456;7.622;2023-02-25T11:26:08;8.73;;;5.53;;
15114;SDS011;7658;51.456;7.622;2023-02-25T11:28:51;9.17;;;5.37;;
15114;SDS011;7658;51.456;7.622;2023-02-25T11:31:24;9.50;;;5.30;;
15114;SDS011;7658;51.456;7.622;2023-02-25T11:34:01;7.90;;;5.07;;
15114;SDS011;7658;51.456;7.622;2023-02-25T11:36:39;6.13;;;4.97;;
15114;SDS011;7658;51.456;7.622;2023-02-25T11:39:12;12.60;;;5.27;;
15114;SDS011;7658;51.456;7.622;2023-02-25T11:41:38;8.93;;;5.60;;
15114;SDS011;7658;51.456;7.622;2023-02-25T11:47:06;6.97;;;5.60;;
15114;SDS011;7658;51.456;7.622;2023-02-25T11:55:23;8.87;;;5.70;;
15114;SDS011;7658;51.456;7.622;2023-02-25T12:00:39;14.60;;;5.47;;
15114;SDS011;7658;51.456;7.622;2023-02-25T12:05:48;7.60;;;4.70;;
15114;SDS011;7658;51.456;7.622;2023-02-25T12:32:48;6.43;;;4.50;;
15114;SDS011;7658;51.456;7.622;2023-02-25T12:55:44;6.20;;;4.20;;
15114;SDS011;7658;51.456;7.622;2023-02-25T13:04:13;8.47;;;4.83;;
15114;SDS011;7658;51.456;7.622;2023-02-25T13:28:43;4.93;;;4.10;;
15114;SDS011;7658;51.456;7.622;2023-02-25T13:32:03;5.77;;;3.87;;
15114;SDS011;7658;51.456;7.622;2023-02-25T13:34:45;5.47;;;4.33;;
15114;SDS011;7658;51.456;7.622;2023-02-25T13:46:08;7.53;;;3.90;;
15114;SDS011;7658;51.456;7.622;2023-02-25T13:49:23;4.30;;;3.90;;
15114;SDS011;7658;51.456;7.622;2023-02-25T14:03:17;4.20;;;3.80;;
15114;SDS011;7658;51.456;7.622;2023-02-25T14:06:06;4.10;;;3.80;;
15114;SDS011;7658;51.456;7.622;2023-02-25T14:11:37;5.37;;;3.97;;
15114;SDS011;7658;51.456;7.622;2023-02-25T14:22:39;7.03;;;4.03;;
15114;SDS011;7658;51.456;7.622;2023-02-25T14:44:34;4.60;;;4.20;;
15114;SDS011;7658;51.456;7.622;2023-02-25T14:47:14;5.23;;;4.77;;
15114;SDS011;7658;51.456;7.622;2023-02-25T14:53:23;5.00;;;4.50;;
15114;SDS011;7658;51.456;7.622;2023-02-25T14:55:49;6.30;;;4.60;;
15114;SDS011;7658;51.456;7.622;2023-02-25T15:01:35;5.07;;;4.67;;
15114;SDS011;7658;51.456;7.622;2023-02-25T15:06:46;6.00;;;4.30;;
15114;SDS011;7658;51.456;7.622;2023-02-25T15:25:32;4.90;;;4.50;;
15114;SDS011;7658;51.456;7.622;2023-02-25T15:33:26;4.87;;;4.40;;
15114;SDS011;7658;51.456;7.622;2023-02-25T15:35:58;4.90;;;4.40;;
15114;SDS011;7658;51.456;7.622;2023-02-25T15:51:48;8.33;;;4.87;;
15114;SDS011;7658;51.456;7.622;2023-02-25T15:56:53;5.43;;;4.60;;
15114;SDS011;7658;51.456;7.622;2023-02-25T16:05:03;5.47;;;4.70;;
15114;SDS011;7658;51.456;7.622;2023-02-25T16:07:49;8.67;;;4.83;;
15114;SDS011;7658;51.456;7.622;2023-02-25T16:10:40;5.20;;;4.80;;
15114;SDS011;7658;51.456;7.622;2023-02-25T16:13:16;7.77;;;5.10;;
15114;SDS011;7658;51.456;7.622;2023-02-25T16:15:51;5.70;;;5.20;;
15114;SDS011;7658;51.456;7.622;2023-02-25T16:20:46;5.40;;;4.90;;
15114;SDS011;7658;51.456;7.622;2023-02-25T16:23:14;6.17;;;5.00;;
15114;SDS011;7658;51.456;7.622;2023-02-25T16:30:58;8.40;;;5.10;;
15114;SDS011;7658;51.456;7.622;2023-02-25T16:33:42;6.47;;;5.37;;
15114;SDS011;7658;51.456;7.622;2023-02-25T16:39:01;5.87;;;5.17;;
15114;SDS011;7658;51.456;7.622;2023-02-25T16:41:47;8.63;;;6.17;;
15114;SDS011;7658;51.456;7.622;2023-02-25T16:44:37;6.50;;;6.00;;
15114;SDS011;7658;51.456;7.622;2023-02-25T16:47:04;10.90;;;8.67;;
15114;SDS011;7658;51.456;7.622;2023-02-25T16:49:44;8.93;;;6.33;;
15114;SDS011;7658;51.456;7.622;2023-02-25T16:52:31;7.90;;;6.97;;
15114;SDS011;7658;51.456;7.622;2023-02-25T16:55:02;7.47;;;6.90;;
15114;SDS011;7658;51.456;7.622;2023-02-25T16:57:33;14.57;;;8.13;;
15114;SDS011;7658;51.456;7.622;2023-02-25T17:00:12;7.13;;;6.63;;
15114;SDS011;7658;51.456;7.622;2023-02-25T17:02:45;10.87;;;8.57;;
15114;SDS011;7658;51.456;7.622;2023-02-25T17:07:52;7.00;;;6.33;;
15114;SDS011;7658;51.456;7.622;2023-02-25T17:10:47;7.57;;;6.97;;
15114;SDS011;7658;51.456;7.622;2023-02-25T17:13:39;7.23;;;5.93;;
15114;SDS011;7658;51.456;7.622;2023-02-25T17:16:05;7.10;;;5.80;;
15114;SDS011;7658;51.456;7.622;2023-02-25T17:18:42;8.73;;;5.27;;
15114;SDS011;7658;51.456;7.622;2023-02-25T17:21:32;5.43;;;5.03;;
15114;SDS011;7658;51.456;7.622;2023-02-25T17:24:01;7.33;;;5.60;;
15114;SDS011;7658;51.456;7.622;2023-02-25T17:26:30;7.83;;;6.30;;
15114;SDS011;7658;51.456;7.622;2023-02-25T17:28:57;12.77;;;10.70;;
15114;SDS011;7658;51.456;7.622;2023-02-25T17:31:26;12.37;;;10.43;;
15114;SDS011;7658;51.456;7.622;2023-02-25T17:33:57;7.20;;;6.50;;
15114;SDS011;7658;51.456;7.622;2023-02-25T17:36:31;7.13;;;5.70;;
15114;SDS011;7658;51.456;7.622;2023-02-25T17:39:00;6.37;;;5.43;;
15114;SDS011;7658;51.456;7.622;2023-02-25T17:41:37;11.40;;;7.93;;
15114;SDS011;7658;51.456;7.622;2023-02-25T17:44:08;8.93;;;7.03;;
15114;SDS011;7658;51.456;7.622;2023-02-25T17:46:36;6.47;;;5.53;;
15114;SDS011;7658;51.456;7.622;2023-02-25T17:49:24;5.70;;;5.17;;
15114;SDS011;7658;51.456;7.622;2023-02-25T17:51:56;7.90;;;5.40;;
15114;SDS011;7658;51.456;7.622;2023-02-25T17:54:25;7.43;;;5.90;;
15114;SDS011;7658;51.456;7.622;2023-02-25T17:56:54;7.63;;;6.33;;
15114;SDS011;7658;51.456;7.622;2023-02-25T18:02:02;6.53;;;5.93;;
15114;SDS011;7658;51.456;7.622;2023-02-25T18:04:46;17.87;;;12.27;;
15114;SDS011;7658;51.456;7.622;2023-02-25T18:09:54;23.53;;;13.97;;
15114;SDS011;7658;51.456;7.622;2023-02-25T18:12:34;10.47;;;8.20;;
15114;SDS011;7658;51.456;7.622;2023-02-25T18:15:03;7.80;;;6.63;;
15114;SDS011;7658;51.456;7.622;2023-02-25T18:17:53;8.53;;;5.97;;
15114;SDS011;7658;51.456;7.622;2023-02-25T18:22:49;6.27;;;5.77;;
15114;SDS011;7658;51.456;7.622;2023-02-25T18:28:01;6.60;;;6.00;;
15114;SDS011;7658;51.456;7.622;2023-02-25T18:30:28;7.27;;;5.50;;
15114;SDS011;7658;51.456;7.622;2023-02-25T18:32:55;8.17;;;6.17;;
15114;SDS011;7658;51.456;7.622;2023-02-25T18:35:23;6.83;;;6.03;;
15114;SDS011;7658;51.456;7.622;2023-02-25T18:37:53;7.27;;;5.87;;
15114;SDS011;7658;51.456;7.622;2023-02-25T18:42:52;6.73;;;6.13;;
15114;SDS011;7658;51.456;7.622;2023-02-25T18:45:19;6.67;;;5.93;;
15114;SDS011;7658;51.456;7.622;2023-02-25T18:47:46;9.03;;;6.00;;
15114;SDS011;7658;51.456;7.622;2023-02-25T18:50:13;6.43;;;5.80;;
15114;SDS011;7658;51.456;7.622;2023-02-25T18:52:39;6.27;;;5.77;;
15114;SDS011;7658;51.456;7.622;2023-02-25T18:55:06;7.03;;;5.40;;
15114;SDS011;7658;51.456;7.622;2023-02-25T18:57:34;9.87;;;6.27;;
15114;SDS011;7658;51.456;7.622;2023-02-25T18:59:59;6.57;;;5.90;;
15114;SDS011;7658;51.456;7.622;2023-02-25T19:02:35;6.47;;;5.97;;
15114;SDS011;7658;51.456;7.622;2023-02-25T19:05:09;8.07;;;5.93;;
15114;SDS011;7658;51.456;7.622;2023-02-25T19:07:36;10.50;;;7.57;;
15114;SDS011;7658;51.456;7.622;2023-02-25T19:10:02;9.93;;;6.50;;
15114;SDS011;7658;51.456;7.622;2023-02-25T19:12:29;6.37;;;5.77;;
15114;SDS011;7658;51.456;7.622;2023-02-25T19:15:05;7.97;;;5.90;;
15114;SDS011;7658;51.456;7.622;2023-02-25T19:17:33;8.77;;;5.90;;
15114;SDS011;7658;51.456;7.622;2023-02-25T19:19:58;8.30;;;7.50;;
15114;SDS011;7658;51.456;7.622;2023-02-25T19:22:25;7.80;;;6.27;;
15114;SDS011;7658;51.456;7.622;2023-02-25T19:24:51;6.70;;;6.00;;
15114;SDS011;7658;51.456;7.622;2023-02-25T19:29:50;10.53;;;6.70;;
15114;SDS011;7658;51.456;7.622;2023-02-25T19:32:17;7.20;;;6.40;;
15114;SDS011;7658;51.456;7.622;2023-02-25T19:34:44;8.77;;;6.80;;
15114;SDS011;7658;51.456;7.622;2023-02-25T19:37:11;7.67;;;6.67;;
15114;SDS011;7658;51.456;7.622;2023-02-25T19:39:38;7.60;;;6.90;;
15114;SDS011;7658;51.456;7.622;2023-02-25T19:42:05;11.57;;;7.47;;
15114;SDS011;7658;51.456;7.622;2023-02-25T19:44:33;8.40;;;7.43;;
15114;SDS011;7658;51.456;7.622;2023-02-25T19:47:00;9.03;;;6.73;;
15114;SDS011;7658;51.456;7.622;2023-02-25T19:49:26;10.03;;;7.10;;
15114;SDS011;7658;51.456;7.622;2023-02-25T19:51:52;14.23;;;8.53;;
15114;SDS011;7658;51.456;7.622;2023-02-25T19:54:19;13.07;;;9.10;;